Time;durP1;ratioP1;P1;durP2;ratioP2;P2;SDS_P1;SDS_P2;PMS_P1;PMS_P2;Temp;Humidity;BMP_temperature;BMP_pressure;BME280_temperature;BME280_humidity;BME280_pressure;Samples;Min_cycle;Max_cycle;Signal;HPM_P1;HPM_P2
2021/08/11 00:00:28;;;;;;;3.70;3.25;;;23.10;71.60;;;;;;5036498;28;20025;-85
2021/08/11 00:02:53;;;;;;;3.95;3.03;;;23.10;71.80;;;;;;5036682;28;20497;-87
2021/08/11 00:05:19;;;;;;;4.53;3.20;;;23.10;71.90;;;;;;5036748;28;20050;-85
2021/08/11 00:07:45;;;;;;;3.78;2.92;;;23.10;71.90;;;;;;5036781;28;20387;-85
2021/08/11 00:10:11;;;;;;;4.38;3.10;;;23.10;71.90;;;;;;5036942;28;20021;-85
2021/08/11 00:12:37;;;;;;;3.22;2.88;;;23.10;72.00;;;;;;5036531;28;20537;-86
2021/08/11 00:15:03;;;;;;;4.82;3.35;;;23.00;72.60;;;;;;5036325;28;20090;-85
2021/08/11 00:17:29;;;;;;;4.55;3.40;;;23.00;72.20;;;;;;5036695;28;20037;-85
2021/08/11 00:19:55;;;;;;;3.85;3.00;;;23.00;72.40;;;;;;5035844;28;20344;-85
2021/08/11 00:22:20;;;;;;;5.45;3.58;;;22.90;72.40;;;;;;5035995;28;20454;-85
2021/08/11 00:24:46;;;;;;;4.50;3.40;;;22.90;72.80;;;;;;5037428;28;20025;-85
2021/08/11 00:27:12;;;;;;;4.55;3.15;;;22.90;72.90;;;;;;5055525;28;20031;-85
2021/08/11 00:29:38;;;;;;;3.72;3.05;;;22.80;73.00;;;;;;5035948;28;20025;-85
2021/08/11 00:32:03;;;;;;;5.53;3.38;;;22.80;73.00;;;;;;5053980;28;20025;-85
2021/08/11 00:34:29;;;;;;;4.30;3.28;;;22.80;73.20;;;;;;5036055;28;20025;-85
2021/08/11 00:36:56;;;;;;;4.10;3.20;;;22.70;73.30;;;;;;5035779;28;20090;-85
2021/08/11 00:39:22;;;;;;;5.85;3.17;;;22.70;73.40;;;;;;5054064;28;20382;-84
2021/08/11 00:41:48;;;;;;;4.90;3.40;;;22.70;73.60;;;;;;5052366;28;20259;-85
2021/08/11 00:44:14;;;;;;;4.95;3.85;;;22.60;73.70;;;;;;5053688;28;20086;-84
2021/08/11 00:46:45;;;;;;;4.25;3.50;;;22.60;74.00;;;;;;5035995;28;20119;-84
2021/08/11 00:49:15;;;;;;;4.32;3.30;;;22.60;74.20;;;;;;5053876;28;20134;-84
2021/08/11 00:51:41;;;;;;;;;;;22.60;74.60;;;;;;5049965;28;20078;-85
2021/08/11 00:54:08;;;;;;;5.60;3.42;;;22.60;77.00;;;;;;5053998;28;19905;-86
2021/08/11 00:56:34;;;;;;;5.38;4.28;;;22.50;74.40;;;;;;5035984;28;20029;-86
2021/08/11 00:59:04;;;;;;;5.03;4.10;;;22.50;74.70;;;;;;5053715;28;20028;-85
2021/08/11 01:01:36;;;;;;;4.47;3.50;;;22.50;74.80;;;;;;5035366;28;20076;-85
2021/08/11 01:04:03;;;;;;;5.25;3.90;;;22.50;75.10;;;;;;5053496;28;20025;-85
2021/08/11 01:06:30;;;;;;;6.47;4.20;;;22.50;74.80;;;;;;5035876;28;20515;-86
2021/08/11 01:08:57;;;;;;;4.65;3.95;;;22.50;75.30;;;;;;5028731;28;20029;-85
2021/08/11 01:11:25;;;;;;;5.93;3.90;;;22.40;75.30;;;;;;5032883;28;20108;-85
2021/08/11 01:13:51;;;;;;;4.15;3.53;;;22.40;75.50;;;;;;5037507;28;20049;-85
2021/08/11 01:16:17;;;;;;;4.55;3.65;;;22.40;75.40;;;;;;5020062;28;20091;-85
2021/08/11 01:18:42;;;;;;;4.22;3.53;;;22.40;76.10;;;;;;5037716;28;20053;-85
2021/08/11 01:21:11;;;;;;;4.90;3.83;;;22.40;75.70;;;;;;5019517;28;20119;-85
2021/08/11 01:23:49;;;;;;;5.43;3.70;;;22.40;75.90;;;;;;5037347;28;20388;-85
2021/08/11 01:26:39;;;;;;;4.43;3.55;;;22.40;76.30;;;;;;5019240;28;20088;-85
2021/08/11 01:29:08;;;;;;;;;;;22.40;77.10;;;;;;5036663;28;20021;-85
2021/08/11 01:32:06;;;;;;;5.25;3.72;;;22.30;78.90;;;;;;5019423;28;19905;-84
2021/08/11 01:34:43;;;;;;;4.80;3.70;;;22.30;76.70;;;;;;5036811;28;20038;-85
2021/08/11 01:37:13;;;;;;;5.90;3.78;;;22.30;76.50;;;;;;5036038;28;20534;-84
2021/08/11 01:39:50;;;;;;;6.45;5.18;;;22.30;76.40;;;;;;5035746;28;20044;-85
2021/08/11 01:42:21;;;;;;;5.45;4.50;;;22.20;78.10;;;;;;5036791;28;20091;-85
2021/08/11 01:44:55;;;;;;;5.15;3.67;;;22.20;76.50;;;;;;5037213;28;20036;-84
2021/08/11 01:47:27;;;;;;;4.95;4.10;;;22.20;77.00;;;;;;5035854;28;20030;-85
2021/08/11 01:49:54;;;;;;;4.70;4.00;;;22.20;76.80;;;;;;5037334;28;20034;-86
2021/08/11 01:52:20;;;;;;;4.82;3.95;;;22.20;76.90;;;;;;5036819;28;20116;-85
2021/08/11 01:54:47;;;;;;;4.65;3.60;;;22.10;77.00;;;;;;5037041;28;20104;-85
2021/08/11 01:57:14;;;;;;;5.80;3.85;;;22.10;77.00;;;;;;5037023;28;20026;-85
2021/08/11 01:59:42;;;;;;;5.03;4.07;;;22.10;77.10;;;;;;5037154;28;20403;-85
2021/08/11 02:02:18;;;;;;;4.78;3.92;;;22.10;77.30;;;;;;5036934;28;20057;-85
2021/08/11 02:04:44;;;;;;;4.30;3.60;;;22.10;77.20;;;;;;5036645;28;20552;-85
2021/08/11 02:07:12;;;;;;;4.18;3.45;;;22.00;77.30;;;;;;5036971;28;20108;-85
2021/08/11 02:09:38;;;;;;;5.10;3.85;;;22.00;78.20;;;;;;5035388;28;20109;-85
2021/08/11 02:12:04;;;;;;;5.32;4.15;;;22.00;77.70;;;;;;5035291;28;20454;-85
2021/08/11 02:14:30;;;;;;;5.32;3.75;;;22.00;77.70;;;;;;5018586;28;20060;-85
2021/08/11 02:16:56;;;;;;;5.03;4.15;;;22.00;77.90;;;;;;5035693;28;20025;-85
2021/08/11 02:19:21;;;;;;;5.20;4.10;;;22.00;78.00;;;;;;5018388;28;20490;-85
2021/08/11 02:21:47;;;;;;;5.72;4.57;;;22.00;78.10;;;;;;5018545;28;20030;-86
2021/08/11 02:24:13;;;;;;;5.35;4.35;;;21.90;78.30;;;;;;5017305;28;20034;-85
2021/08/11 02:26:42;;;;;;;5.38;4.20;;;21.90;78.30;;;;;;5036431;28;20025;-86
2021/08/11 02:29:22;;;;;;;4.75;4.00;;;21.90;78.50;;;;;;5036734;28;20082;-85
2021/08/11 02:31:55;;;;;;;4.57;3.83;;;21.90;79.10;;;;;;5018609;28;20468;-86
2021/08/11 02:34:44;;;;;;;4.90;3.90;;;21.90;79.00;;;;;;5035131;28;20022;-86
2021/08/11 02:37:15;;;;;;;4.30;3.63;;;21.90;80.30;;;;;;5035958;28;20025;-86
2021/08/11 02:39:59;;;;;;;4.43;3.70;;;21.90;78.80;;;;;;5036330;28;20452;-85
2021/08/11 02:42:37;;;;;;;4.85;3.92;;;21.90;79.30;;;;;;5034862;28;20064;-86
2021/08/11 02:45:08;;;;;;;4.35;3.80;;;21.90;80.00;;;;;;5019013;28;20083;-85
2021/08/11 02:47:36;;;;;;;4.55;3.95;;;21.90;79.00;;;;;;5036003;28;20044;-86
2021/08/11 02:50:03;;;;;;;6.10;4.18;;;21.80;79.10;;;;;;5034719;28;20037;-85
2021/08/11 02:52:30;;;;;;;5.28;4.07;;;21.80;79.30;;;;;;5036387;28;20376;-86
2021/08/11 02:54:56;;;;;;;5.00;4.28;;;21.80;79.40;;;;;;5026326;28;20025;-86
2021/08/11 02:57:22;;;;;;;4.90;4.22;;;21.80;79.50;;;;;;5022787;28;20025;-85
2021/08/11 02:59:49;;;;;;;4.47;3.90;;;21.80;79.60;;;;;;5034812;28;20057;-85
2021/08/11 03:02:14;;;;;;;5.45;4.40;;;21.80;80.30;;;;;;5018110;28;20083;-85
2021/08/11 03:04:40;;;;;;;6.85;4.30;;;21.80;79.80;;;;;;5018095;28;20554;-86
2021/08/11 03:07:06;;;;;;;5.43;4.50;;;21.80;80.00;;;;;;5035959;28;20035;-86
2021/08/11 03:09:34;;;;;;;5.25;4.10;;;21.80;79.90;;;;;;5035876;28;20022;-86
2021/08/11 03:12:01;;;;;;;5.25;3.88;;;21.80;79.80;;;;;;5034455;28;20068;-86
2021/08/11 03:14:27;;;;;;;5.88;4.05;;;21.80;80.00;;;;;;5017430;28;20132;-85
2021/08/11 03:16:53;;;;;;;5.93;4.20;;;21.80;80.00;;;;;;5017523;28;20033;-86
2021/08/11 03:19:18;;;;;;;7.10;4.95;;;21.80;80.00;;;;;;5035536;28;20388;-85
2021/08/11 03:21:44;;;;;;;4.95;4.22;;;21.80;79.90;;;;;;5034416;28;20143;-85
2021/08/11 03:24:10;;;;;;;5.72;3.88;;;21.80;79.90;;;;;;5034277;28;20116;-86
2021/08/11 03:26:35;;;;;;;4.70;3.78;;;21.80;80.10;;;;;;5035730;28;20026;-85
2021/08/11 03:29:01;;;;;;;5.22;4.28;;;21.80;80.00;;;;;;5035798;28;20053;-86
2021/08/11 03:31:28;;;;;;;7.47;5.10;;;21.80;80.10;;;;;;5033698;28;20029;-86
2021/08/11 03:33:55;;;;;;;7.40;5.60;;;21.80;80.00;;;;;;5017047;28;20026;-86
2021/08/11 03:36:21;;;;;;;5.53;4.85;;;21.80;80.20;;;;;;5036125;28;20025;-85
2021/08/11 03:38:46;;;;;;;6.05;4.78;;;21.80;80.20;;;;;;5037125;28;20144;-86
2021/08/11 03:41:12;;;;;;;5.38;4.40;;;21.80;80.10;;;;;;5034786;28;20124;-86
2021/08/11 03:43:38;;;;;;;5.47;4.30;;;21.90;80.20;;;;;;5036368;28;20033;-87
2021/08/11 03:46:03;;;;;;;4.32;3.70;;;21.90;80.00;;;;;;5034638;28;20108;-85
2021/08/11 03:48:29;;;;;;;5.68;4.10;;;21.90;80.00;;;;;;5016938;28;20399;-86
2021/08/11 03:50:54;;;;;;;5.97;4.20;;;22.00;80.10;;;;;;5035420;28;20108;-87
2021/08/11 03:53:20;;;;;;;5.47;4.20;;;22.10;80.10;;;;;;5034983;28;20052;-85
2021/08/11 03:55:46;;;;;;;4.78;4.00;;;22.10;79.80;;;;;;5033379;28;20057;-86
2021/08/11 03:58:11;;;;;;;5.65;3.80;;;22.10;79.60;;;;;;5016658;28;20026;-86
2021/08/11 04:00:37;;;;;;;4.78;3.90;;;22.20;79.60;;;;;;5016779;28;20029;-86
2021/08/11 04:03:03;;;;;;;4.65;3.80;;;22.20;79.60;;;;;;5034411;28;20065;-84
2021/08/11 04:05:29;;;;;;;4.97;4.47;;;22.30;79.50;;;;;;5034705;28;20112;-86
2021/08/11 04:07:54;;;;;;;7.05;4.55;;;22.30;79.50;;;;;;5034774;28;20029;-86
2021/08/11 04:10:20;;;;;;;4.57;4.10;;;22.40;79.40;;;;;;5016277;28;20436;-85
2021/08/11 04:12:46;;;;;;;6.70;4.72;;;22.40;79.20;;;;;;5016806;28;20029;-86
2021/08/11 04:15:12;;;;;;;5.10;4.25;;;22.40;79.10;;;;;;5034514;28;20042;-84
2021/08/11 04:17:37;;;;;;;5.05;3.97;;;22.50;79.10;;;;;;5034611;28;20036;-83
2021/08/11 04:20:05;;;;;;;5.05;4.00;;;22.60;79.10;;;;;;5034923;28;20025;-84
2021/08/11 04:22:30;;;;;;;4.95;4.13;;;22.60;79.10;;;;;;5034424;28;20069;-83
2021/08/11 04:24:56;;;;;;;5.20;3.88;;;22.60;78.90;;;;;;5034098;28;20079;-85
2021/08/11 04:27:22;;;;;;;4.32;3.92;;;22.70;79.00;;;;;;5015726;28;20448;-85
2021/08/11 04:29:47;;;;;;;5.90;4.32;;;22.70;78.80;;;;;;5015950;28;20116;-85
2021/08/11 04:32:13;;;;;;;5.47;4.10;;;22.80;78.60;;;;;;5033226;28;20033;-87
2021/08/11 04:34:39;;;;;;;5.25;3.75;;;22.90;78.40;;;;;;5034390;28;20029;-87
2021/08/11 04:37:06;;;;;;;6.35;5.03;;;23.00;78.20;;;;;;5016275;28;20029;-87
2021/08/11 04:39:32;;;;;;;8.82;6.25;;;23.10;77.90;;;;;;5034275;28;20069;-87
2021/08/11 04:41:58;;;;;;;6.82;5.13;;;23.20;77.50;;;;;;5034086;28;20030;-86
2021/08/11 04:44:24;;;;;;;5.43;4.43;;;23.20;77.20;;;;;;5049262;28;20037;-86
2021/08/11 04:46:49;;;;;;;6.15;4.80;;;23.20;77.00;;;;;;5053091;28;20078;-89
2021/08/11 04:49:15;;;;;;;5.15;4.35;;;23.20;76.80;;;;;;5055718;28;20033;-89
2021/08/11 04:51:41;;;;;;;6.32;4.32;;;23.20;77.00;;;;;;5053552;28;20418;-85
2021/08/11 04:54:06;;;;;;;5.32;4.38;;;23.20;76.80;;;;;;5053208;28;20040;-87
2021/08/11 04:56:32;;;;;;;4.43;4.03;;;23.20;76.60;;;;;;5036084;28;20032;-87
2021/08/11 04:58:58;;;;;;;4.57;3.92;;;23.30;76.50;;;;;;5053257;28;20025;-87
2021/08/11 05:01:24;;;;;;;4.65;4.13;;;23.30;76.40;;;;;;5053622;28;20032;-85
2021/08/11 05:03:53;;;;;;;4.47;3.80;;;23.30;76.20;;;;;;5035325;28;20031;-86
2021/08/11 05:06:19;;;;;;;5.07;4.28;;;23.30;76.10;;;;;;5035362;28;20029;-84
2021/08/11 05:08:45;;;;;;;9.20;4.35;;;23.30;75.90;;;;;;5035627;28;20037;-84
2021/08/11 05:11:10;;;;;;;5.43;4.20;;;23.30;75.90;;;;;;5032223;28;20575;-85
2021/08/11 05:13:36;;;;;;;5.32;4.10;;;23.40;75.80;;;;;;5035367;28;20511;-85
2021/08/11 05:16:02;;;;;;;5.50;3.72;;;23.50;75.70;;;;;;5035543;28;20067;-84
2021/08/11 05:18:30;;;;;;;5.53;4.30;;;23.50;75.60;;;;;;5034834;28;20476;-84
2021/08/11 05:20:56;;;;;;;4.50;3.80;;;23.50;75.40;;;;;;5035558;28;20422;-84
2021/08/11 05:23:22;;;;;;;5.63;4.20;;;23.60;75.40;;;;;;5035809;28;20029;-85
2021/08/11 05:25:48;;;;;;;6.97;4.32;;;23.60;75.40;;;;;;5058026;28;20028;-85
2021/08/11 05:28:14;;;;;;;4.80;4.00;;;23.70;75.30;;;;;;5063132;28;20075;-85
2021/08/11 05:30:40;;;;;;;5.40;4.50;;;23.80;75.20;;;;;;5035297;28;20467;-86
2021/08/11 05:33:06;;;;;;;5.15;4.07;;;23.80;74.90;;;;;;5035213;28;20035;-85
2021/08/11 05:35:32;;;;;;;6.93;4.47;;;23.90;74.80;;;;;;5035591;28;20029;-85
2021/08/11 05:37:58;;;;;;;6.80;4.40;;;24.00;74.70;;;;;;5035369;28;20443;-85
2021/08/11 05:40:24;;;;;;;5.20;4.60;;;24.00;74.40;;;;;;5052903;28;20082;-85
2021/08/11 05:42:49;;;;;;;5.22;4.18;;;24.10;74.20;;;;;;5034252;28;20033;-84
2021/08/11 05:45:15;;;;;;;6.35;4.60;;;24.20;74.00;;;;;;5035153;28;20025;-87
2021/08/11 05:47:42;;;;;;;5.13;4.07;;;24.30;73.90;;;;;;5053130;28;20029;-84
2021/08/11 05:50:08;;;;;;;5.50;3.90;;;24.40;73.70;;;;;;5035466;28;20033;-85
2021/08/11 05:52:35;;;;;;;5.25;4.30;;;24.50;73.50;;;;;;5034237;28;20033;-88
2021/08/11 05:55:01;;;;;;;6.05;5.05;;;24.60;73.30;;;;;;5035382;28;20028;-87
2021/08/11 05:57:28;;;;;;;7.57;6.20;;;24.70;73.20;;;;;;5036029;28;20025;-88
2021/08/11 05:59:54;;;;;;;8.27;6.47;;;24.80;72.90;;;;;;5022548;28;20495;-87
2021/08/11 06:02:21;;;;;;;7.57;5.53;;;24.80;72.70;;;;;;5039081;28;20025;-88
2021/08/11 06:04:47;;;;;;;5.53;4.85;;;24.70;72.70;;;;;;5056831;28;20086;-89
2021/08/11 06:07:13;;;;;;;6.68;5.10;;;24.80;72.90;;;;;;5056899;28;20100;-88
2021/08/11 06:09:40;;;;;;;6.40;4.90;;;24.90;72.80;;;;;;5057025;28;20029;-90
2021/08/11 06:12:06;;;;;;;5.90;5.05;;;25.00;72.60;;;;;;5038754;28;20029;-88
2021/08/11 06:14:35;;;;;;;5.72;4.57;;;25.00;72.30;;;;;;5056287;28;20044;-87
2021/08/11 06:17:01;;;;;;;8.48;5.50;;;25.10;72.30;;;;;;5056482;28;20028;-89
2021/08/11 06:19:26;;;;;;;9.57;6.82;;;25.10;72.10;;;;;;5039038;28;20527;-89
2021/08/11 06:21:52;;;;;;;8.30;6.72;;;25.20;72.00;;;;;;5057213;28;20455;-89
2021/08/11 06:24:18;;;;;;;10.15;7.07;;;25.30;71.90;;;;;;5057438;28;20438;-88
2021/08/11 06:26:44;;;;;;;6.95;5.72;;;25.30;71.90;;;;;;5045187;28;20028;-88
2021/08/11 06:29:10;;;;;;;8.75;6.38;;;25.30;71.90;;;;;;5046775;28;20477;-88
2021/08/11 06:31:35;;;;;;;7.20;5.60;;;25.40;71.80;;;;;;5039254;28;20121;-88
2021/08/11 06:34:01;;;;;;;9.27;6.78;;;25.40;71.80;;;;;;5039174;28;20452;-89
2021/08/11 06:36:27;;;;;;;8.25;6.00;;;25.50;72.00;;;;;;5056203;28;20060;-89
2021/08/11 06:38:53;;;;;;;6.53;5.68;;;25.70;71.90;;;;;;5038343;28;20500;-89
2021/08/11 06:41:21;;;;;;;6.90;5.47;;;25.90;71.40;;;;;;5056436;28;20082;-88
2021/08/11 06:43:47;;;;;;;6.18;5.40;;;26.00;71.00;;;;;;5038053;28;20037;-88
2021/08/11 06:46:14;;;;;;;7.22;4.90;;;26.10;70.60;;;;;;5038378;28;20025;-88
2021/08/11 06:48:40;;;;;;;5.93;4.40;;;26.20;70.40;;;;;;5038670;28;20076;-87
2021/08/11 06:51:07;;;;;;;5.15;4.35;;;26.40;70.40;;;;;;5038173;28;20029;-88
2021/08/11 06:53:33;;;;;;;5.00;4.00;;;26.50;70.30;;;;;;5037755;28;20036;-90
2021/08/11 06:56:00;;;;;;;6.80;4.55;;;26.60;70.10;;;;;;5037895;28;20096;-89
2021/08/11 06:58:25;;;;;;;5.22;4.13;;;26.70;69.80;;;;;;5037979;28;20102;-87
2021/08/11 07:00:52;;;;;;;4.90;3.88;;;26.90;69.70;;;;;;5038097;28;20456;-87
2021/08/11 07:03:19;;;;;;;5.72;4.38;;;27.20;69.50;;;;;;5037494;28;20055;-89
2021/08/11 07:05:45;;;;;;;5.53;4.18;;;27.50;69.00;;;;;;5055499;28;20025;-88
2021/08/11 07:08:11;;;;;;;6.93;4.28;;;27.70;68.50;;;;;;5037531;28;20391;-88
2021/08/11 07:10:37;;;;;;;5.43;4.32;;;27.90;67.70;;;;;;5037296;28;20021;-88
2021/08/11 07:13:03;;;;;;;5.57;4.70;;;28.10;67.00;;;;;;5055714;28;20035;-90
2021/08/11 07:15:29;;;;;;;5.95;4.30;;;28.10;66.60;;;;;;5055684;28;20079;-88
2021/08/11 07:17:56;;;;;;;7.20;4.20;;;28.20;66.30;;;;;;5037580;28;20021;-87
2021/08/11 07:20:28;;;;;;;6.15;4.32;;;28.30;66.10;;;;;;5036509;28;20036;-88
2021/08/11 07:22:55;;;;;;;4.68;4.10;;;28.50;65.20;;;;;;5037091;28;20032;-89
2021/08/11 07:25:23;;;;;;;4.70;4.05;;;28.50;65.40;;;;;;5037104;28;20055;-89
2021/08/11 07:27:49;;;;;;;6.00;4.72;;;28.60;65.40;;;;;;5055138;28;20028;-90
2021/08/11 07:30:16;;;;;;;4.72;4.20;;;28.70;64.70;;;;;;5054378;28;20028;-89
2021/08/11 07:32:43;;;;;;;6.32;4.03;;;28.70;64.70;;;;;;5037308;28;20035;-89
2021/08/11 07:35:11;;;;;;;5.80;3.65;;;28.80;64.70;;;;;;5054838;28;20024;-88
2021/08/11 07:37:49;;;;;;;4.03;3.60;;;28.90;64.70;;;;;;5055300;28;20021;-87
2021/08/11 07:40:15;;;;;;;4.00;3.60;;;29.00;64.10;;;;;;5038416;28;20032;-90
2021/08/11 07:42:42;;;;;;;4.13;3.53;;;29.10;64.50;;;;;;5038223;28;20035;-89
2021/08/11 07:45:09;;;;;;;4.43;3.83;;;29.20;64.30;;;;;;5054799;28;20041;-89
2021/08/11 07:47:35;;;;;;;4.18;3.38;;;29.30;63.80;;;;;;5055085;28;20413;-89
2021/08/11 07:50:02;;;;;;;109.20;93.57;;;29.40;63.70;;;;;;5062306;28;20111;-91
2021/08/11 07:52:28;;;;;;;84.70;75.43;;;29.50;63.20;;;;;;5038018;28;20032;-87
2021/08/11 07:54:55;;;;;;;36.83;32.88;;;29.50;62.80;;;;;;5054742;28;20109;-86
2021/08/11 07:57:20;;;;;;;18.63;16.73;;;29.40;62.60;;;;;;5036236;28;20028;-86
2021/08/11 07:59:46;;;;;;;11.20;10.02;;;29.50;62.80;;;;;;5053918;28;20037;-87
2021/08/11 08:02:13;;;;;;;9.27;6.72;;;29.50;62.70;;;;;;5054594;28;20029;-86
2021/08/11 08:04:42;;;;;;;5.82;5.22;;;29.70;63.30;;;;;;5054132;28;20033;-88
2021/08/11 08:07:09;;;;;;;4.80;4.17;;;29.90;63.80;;;;;;5034334;28;20040;-86
2021/08/11 08:09:35;;;;;;;5.72;4.28;;;30.20;63.80;;;;;;5054351;28;20053;-87
2021/08/11 08:12:01;;;;;;;4.93;3.90;;;30.60;63.90;;;;;;5036510;28;20074;-92
2021/08/11 08:14:27;;;;;;;5.53;4.50;;;30.90;63.40;;;;;;5032851;28;20060;-89
2021/08/11 08:16:53;;;;;;;4.38;3.97;;;31.20;61.50;;;;;;5032779;28;20025;-86
2021/08/11 08:19:19;;;;;;;7.43;4.40;;;31.40;60.90;;;;;;5033536;28;20112;-87
2021/08/11 08:21:44;;;;;;;6.22;4.38;;;31.60;60.50;;;;;;5033625;28;20044;-87
2021/08/11 08:24:10;;;;;;;5.55;4.43;;;31.80;60.30;;;;;;5032924;28;20076;-87
2021/08/11 08:26:36;;;;;;;4.35;3.95;;;32.10;59.80;;;;;;5032876;28;20025;-85
2021/08/11 08:29:03;;;;;;;5.97;4.35;;;32.40;59.50;;;;;;5032187;28;20034;-86
2021/08/11 08:31:30;;;;;;;5.88;4.40;;;32.70;58.20;;;;;;5032984;28;20026;-89
2021/08/11 08:33:57;;;;;;;5.18;4.35;;;32.90;57.90;;;;;;5032294;28;20041;-87
2021/08/11 08:36:23;;;;;;;10.13;4.60;;;33.10;57.70;;;;;;5032910;28;20383;-87
2021/08/11 08:38:48;;;;;;;6.65;4.35;;;33.30;56.30;;;;;;5034060;28;20100;-88
2021/08/11 08:41:15;;;;;;;4.57;4.18;;;33.50;56.10;;;;;;5032494;28;20408;-88
2021/08/11 08:43:41;;;;;;;5.38;4.18;;;33.60;55.70;;;;;;5032412;28;20055;-87
2021/08/11 08:46:08;;;;;;;4.50;4.10;;;33.70;55.00;;;;;;5032293;28;20531;-86
2021/08/11 08:48:39;;;;;;;5.13;3.70;;;33.80;54.80;;;;;;5035018;28;20030;-86
2021/08/11 08:51:07;;;;;;;4.65;3.83;;;33.90;53.70;;;;;;5034117;28;20476;-87
2021/08/11 08:53:34;;;;;;;5.50;3.72;;;34.10;54.20;;;;;;5034032;28;20414;-86
2021/08/11 08:56:01;;;;;;;4.20;3.72;;;34.30;54.00;;;;;;5034246;28;20379;-87
2021/08/11 08:58:26;;;;;;;7.32;3.60;;;34.60;53.50;;;;;;5032158;28;20044;-86
2021/08/11 09:00:55;;;;;;;5.00;3.70;;;34.80;52.40;;;;;;5031935;28;20026;-87
2021/08/11 09:03:21;;;;;;;5.35;3.30;;;34.70;51.70;;;;;;5032333;28;20506;-88
2021/08/11 09:05:46;;;;;;;5.15;3.70;;;34.40;51.70;;;;;;5033800;28;20499;-87
2021/08/11 09:08:12;;;;;;;5.18;3.80;;;34.30;52.00;;;;;;5034911;28;20467;-84
2021/08/11 09:10:41;;;;;;;5.35;3.80;;;34.30;51.40;;;;;;5034006;28;20029;-84
2021/08/11 09:13:33;;;;;;;4.18;3.78;;;34.10;51.10;;;;;;5033853;28;20033;-85
2021/08/11 09:16:05;;;;;;;4.00;3.60;;;33.70;50.30;;;;;;5015286;28;20037;-85
2021/08/11 09:18:31;;;;;;;5.20;3.63;;;33.40;51.20;;;;;;5053154;28;20033;-84
2021/08/11 09:21:01;;;;;;;6.13;3.75;;;33.30;51.90;;;;;;5034992;28;20025;-88
2021/08/11 09:23:46;;;;;;;4.18;3.72;;;33.40;51.70;;;;;;5031487;28;20029;-86
2021/08/11 09:26:13;;;;;;;3.90;3.33;;;33.40;50.60;;;;;;5049112;28;20475;-85
2021/08/11 09:28:42;;;;;;;3.90;3.45;;;33.60;52.20;;;;;;5052065;28;20071;-86
2021/08/11 09:31:20;;;;;;;3.90;3.50;;;34.00;52.20;;;;;;5033834;28;20025;-85
2021/08/11 09:33:52;;;;;;;4.68;3.75;;;34.50;50.90;;;;;;5054326;28;20028;-87
2021/08/11 09:36:18;;;;;;;4.13;3.53;;;35.00;50.30;;;;;;5055191;28;20025;-84
2021/08/11 09:39:00;;;;;;;5.35;4.22;;;35.50;50.90;;;;;;5039467;28;20033;-84
2021/08/11 09:41:26;;;;;;;21.85;17.10;;;36.10;46.80;;;;;;5023935;28;20060;-86
2021/08/11 09:44:12;;;;;;;8.70;7.80;;;36.30;48.70;;;;;;5037356;28;20057;-86
2021/08/11 09:46:40;;;;;;;4.85;4.43;;;36.50;46.00;;;;;;5046606;28;20448;-84
2021/08/11 09:49:20;;;;;;;5.05;3.90;;;36.60;47.70;;;;;;5038919;28;20061;-84
2021/08/11 09:52:00;;;;;;;3.75;3.38;;;36.80;44.70;;;;;;5035743;28;20406;-83
2021/08/11 09:54:27;;;;;;;5.60;3.63;;;37.10;45.40;;;;;;5056746;28;20029;-83
2021/08/11 09:56:53;;;;;;;3.92;3.53;;;37.40;46.30;;;;;;5035927;28;20080;-83
2021/08/11 09:59:20;;;;;;;4.90;3.50;;;37.60;46.00;;;;;;5061654;28;20071;-83
2021/08/11 10:01:45;;;;;;;3.60;3.30;;;37.70;45.50;;;;;;5068185;28;20036;-84
2021/08/11 10:04:11;;;;;;;3.75;3.45;;;37.80;44.90;;;;;;5060345;28;20032;-85
2021/08/11 10:06:39;;;;;;;5.25;3.47;;;37.80;45.00;;;;;;5038437;28;20021;-83
2021/08/11 10:09:20;;;;;;;4.05;3.20;;;37.70;44.80;;;;;;5038596;28;20024;-85
2021/08/11 10:11:50;;;;;;;3.83;3.42;;;37.70;42.30;;;;;;5038541;28;20029;-87
2021/08/11 10:14:21;;;;;;;4.45;3.28;;;37.70;44.40;;;;;;5039000;28;20494;-84
2021/08/11 10:16:48;;;;;;;5.38;3.35;;;37.90;44.50;;;;;;5038546;28;20025;-86
2021/08/11 10:19:15;;;;;;;6.00;3.70;;;38.10;44.30;;;;;;5035663;28;20024;-85
2021/08/11 10:21:49;;;;;;;3.22;2.92;;;38.30;43.80;;;;;;5056343;28;20029;-84
2021/08/11 10:24:16;;;;;;;3.58;3.25;;;38.60;42.10;;;;;;5053348;28;20025;-84
2021/08/11 10:26:42;;;;;;;3.08;2.78;;;38.70;43.20;;;;;;5037874;28;20356;-85
2021/08/11 10:29:09;;;;;;;3.30;3.00;;;38.80;42.80;;;;;;5055939;28;20531;-86
2021/08/11 10:31:35;;;;;;;3.50;3.20;;;38.80;42.20;;;;;;5037632;28;20471;-83
2021/08/11 10:34:02;;;;;;;4.35;3.10;;;38.60;41.90;;;;;;5038091;28;20025;-84
2021/08/11 10:36:30;;;;;;;4.20;3.08;;;38.20;42.50;;;;;;5037954;28;20025;-85
2021/08/11 10:38:57;;;;;;;4.50;3.00;;;38.10;42.40;;;;;;5056140;28;20021;-83
2021/08/11 10:41:28;;;;;;;3.53;3.13;;;37.80;42.00;;;;;;5055342;28;20029;-84
2021/08/11 10:43:54;;;;;;;4.05;3.25;;;37.50;42.40;;;;;;5036590;28;20029;-85
2021/08/11 10:46:22;;;;;;;3.63;3.30;;;37.40;42.80;;;;;;5037481;28;20051;-84
2021/08/11 10:49:04;;;;;;;3.30;3.00;;;37.50;43.00;;;;;;5020303;28;20025;-83
2021/08/11 10:51:41;;;;;;;4.15;3.00;;;37.50;41.80;;;;;;5036892;28;20447;-85
2021/08/11 10:54:07;;;;;;;4.35;3.05;;;37.50;42.50;;;;;;5037527;28;20028;-84
2021/08/11 10:56:52;;;;;;;3.67;3.28;;;37.40;43.20;;;;;;5037112;28;20418;-83
2021/08/11 10:59:28;;;;;;;3.20;2.90;;;37.10;42.20;;;;;;5034966;28;20025;-84
2021/08/11 11:01:55;;;;;;;3.30;3.00;;;36.50;43.00;;;;;;5055204;28;20028;-84
2021/08/11 11:04:42;;;;;;;4.72;3.70;;;36.20;44.00;;;;;;5055226;28;20455;-84
2021/08/11 11:07:16;;;;;;;4.07;3.25;;;36.50;43.00;;;;;;5053883;28;20025;-84
2021/08/11 11:09:43;;;;;;;3.15;2.90;;;36.80;44.10;;;;;;5053958;28;20094;-85
2021/08/11 11:12:18;;;;;;;8.88;3.20;;;37.30;43.70;;;;;;5037770;28;20029;-88
2021/08/11 11:14:52;;;;;;;34.50;30.85;;;37.50;41.60;;;;;;5055404;28;20045;-85
2021/08/11 11:17:23;;;;;;;48.25;43.47;;;37.30;42.60;;;;;;5038444;28;20417;-89
2021/08/11 11:20:04;;;;;;;21.42;19.38;;;37.20;42.90;;;;;;5037683;28;20073;-84
2021/08/11 11:22:51;;;;;;;10.23;9.23;;;37.70;42.20;;;;;;5054807;28;20040;-89
2021/08/11 11:25:19;;;;;;;6.18;5.57;;;38.40;40.70;;;;;;5037417;28;20108;-86
2021/08/11 11:27:45;;;;;;;4.55;4.05;;;38.90;42.00;;;;;;5055523;28;20104;-85
2021/08/11 11:30:13;;;;;;;3.60;3.30;;;39.40;41.30;;;;;;5055356;28;20072;-85
2021/08/11 11:32:39;;;;;;;3.87;2.90;;;39.90;40.80;;;;;;5037267;28;20387;-84
2021/08/11 11:35:24;;;;;;;4.10;2.92;;;40.20;40.10;;;;;;5054841;28;20459;-83
2021/08/11 11:38:11;;;;;;;3.55;3.05;;;40.20;38.40;;;;;;5037074;28;20025;-83
2021/08/11 11:40:55;;;;;;;3.90;2.90;;;39.80;38.00;;;;;;5054440;28;20029;-85
2021/08/11 11:43:25;;;;;;;4.85;3.90;;;39.20;38.40;;;;;;5036663;28;20082;-87
2021/08/11 11:45:52;;;;;;;4.63;3.70;;;38.90;39.60;;;;;;5036363;28;20032;-85
2021/08/11 11:48:18;;;;;;;3.53;2.92;;;38.90;40.10;;;;;;5036413;28;20037;-86
2021/08/11 11:50:47;;;;;;;4.38;3.03;;;39.00;40.10;;;;;;5036414;28;20384;-86
2021/08/11 11:53:24;;;;;;;3.40;3.10;;;39.20;40.00;;;;;;5054502;28;20422;-86
2021/08/11 11:55:51;;;;;;;4.45;2.85;;;39.30;38.50;;;;;;5055174;28;20060;-86
2021/08/11 11:58:22;;;;;;;3.08;2.78;;;39.10;39.60;;;;;;5036476;28;20021;-85
2021/08/11 12:00:56;;;;;;;3.17;2.88;;;38.90;39.90;;;;;;5035491;28;20542;-85
2021/08/11 12:03:36;;;;;;;3.22;2.60;;;38.90;39.80;;;;;;5032153;28;20111;-86
2021/08/11 12:06:02;;;;;;;3.47;2.53;;;38.80;39.40;;;;;;5031921;28;20020;-85
2021/08/11 12:08:28;;;;;;;3.10;2.80;;;38.80;39.70;;;;;;5036102;28;20048;-88
2021/08/11 12:11:14;;;;;;;3.17;2.50;;;38.90;39.50;;;;;;5032430;28;20437;-83
2021/08/11 12:13:47;;;;;;;2.83;2.53;;;39.20;38.30;;;;;;5033003;28;20075;-85
2021/08/11 12:16:15;;;;;;;2.97;2.67;;;39.10;39.00;;;;;;5035635;28;20021;-85
2021/08/11 12:18:44;;;;;;;3.20;2.50;;;39.20;38.90;;;;;;5016424;28;20060;-84
2021/08/11 12:21:11;;;;;;;3.40;2.30;;;38.90;38.90;;;;;;5016918;28;20029;-84
2021/08/11 12:23:37;;;;;;;39.38;33.10;;;38.80;39.10;;;;;;5046460;28;20056;-84
2021/08/11 12:26:04;;;;;;;58.42;53.33;;;38.80;39.20;;;;;;5045195;28;20041;-86
2021/08/11 12:28:36;;;;;;;21.73;19.90;;;39.10;39.00;;;;;;5036266;28;20048;-88
2021/08/11 12:31:06;;;;;;;9.32;8.52;;;39.30;39.00;;;;;;5035904;28;20387;-83
2021/08/11 12:33:37;;;;;;;5.22;4.65;;;39.50;38.90;;;;;;5037260;28;20414;-84
2021/08/11 12:36:09;;;;;;;4.47;3.47;;;39.90;38.50;;;;;;5054157;28;20029;-83
2021/08/11 12:38:38;;;;;;;4.70;3.08;;;40.20;38.20;;;;;;5036200;28;20032;-83
2021/08/11 12:41:24;;;;;;;4.03;2.50;;;40.30;37.50;;;;;;5035977;28;20471;-83
2021/08/11 12:43:52;;;;;;;2.72;2.53;;;40.40;36.00;;;;;;5035958;28;20147;-83
2021/08/11 12:46:42;;;;;;;2.50;2.30;;;40.60;37.20;;;;;;5035472;28;20025;-84
2021/08/11 12:49:42;;;;;;;2.72;2.47;;;40.70;35.80;;;;;;5050586;28;20517;-83
2021/08/11 12:52:15;;;;;;;4.20;2.60;;;40.80;35.90;;;;;;5031353;28;20104;-84